Time;durP1;ratioP1;P1;durP2;ratioP2;P2;SDS_P1;SDS_P2;PMS_P1;PMS_P2;Temp;Humidity;BMP_temperature;BMP_pressure;BME280_temperature;BME280_humidity;BME280_pressure;Samples;Min_cycle;Max_cycle;Signal;HPM_P1;HPM_P2
2022/11/06 00:01:37;;;;;;;20.77;13.27;;;6.80;83.90;;;4.97;100.00;96458.34;4845310;28;20444;-71
2022/11/06 00:04:03;;;;;;;20.08;13.70;;;6.80;84.00;;;4.95;100.00;96462.88;4862384;28;20516;-71
2022/11/06 00:06:48;;;;;;;18.00;12.90;;;6.80;84.00;;;4.92;100.00;96462.22;4872465;28;20444;-71
2022/11/06 00:09:18;;;;;;;19.63;13.27;;;6.80;84.20;;;4.91;100.00;96465.78;4852750;28;20724;-72
2022/11/06 00:11:45;;;;;;;18.80;13.13;;;6.70;84.00;;;4.90;100.00;96461.53;4853714;28;20512;-71
2022/11/06 00:14:11;;;;;;;17.63;12.63;;;6.70;84.00;;;4.88;100.00;96466.06;4853100;28;20442;-71
2022/11/06 00:16:38;;;;;;;21.02;13.57;;;6.70;84.00;;;4.87;100.00;96461.00;4855600;28;20455;-71
2022/11/06 00:19:05;;;;;;;17.27;12.18;;;6.70;83.90;;;4.85;100.00;96461.16;4880792;28;20884;-71
2022/11/06 00:21:31;;;;;;;17.88;12.20;;;6.70;84.00;;;4.86;100.00;96461.97;4868566;28;20700;-71
2022/11/06 00:23:58;;;;;;;18.85;12.55;;;6.70;84.00;;;4.85;100.00;96447.31;4871162;28;20393;-71
2022/11/06 00:26:26;;;;;;;18.80;12.45;;;6.70;84.10;;;4.84;100.00;96443.88;4837954;28;20330;-71
2022/11/06 00:28:52;;;;;;;18.40;12.77;;;6.70;84.20;;;4.84;100.00;96454.31;4874279;28;20367;-71
2022/11/06 00:31:22;;;;;;;20.02;13.10;;;6.70;84.20;;;4.83;100.00;96449.25;4871132;28;20304;-72
2022/11/06 00:33:48;;;;;;;18.88;12.20;;;6.70;84.20;;;4.82;100.00;96445.81;4897269;28;20530;-71
2022/11/06 00:36:22;;;;;;;20.83;13.75;;;6.70;84.20;;;4.82;100.00;96440.59;4872502;28;20262;-71
2022/11/06 00:38:51;;;;;;;19.92;13.43;;;6.60;84.10;;;4.79;100.00;96438.28;4872453;28;20497;-71
2022/11/06 00:41:18;;;;;;;17.40;12.02;;;6.60;84.20;;;4.77;100.00;96432.41;4857178;28;20516;-70
2022/11/06 00:43:58;;;;;;;18.13;11.77;;;6.60;84.10;;;4.74;100.00;96437.88;4854156;28;20293;-70
2022/11/06 00:46:24;;;;;;;19.08;13.15;;;6.60;84.10;;;4.70;100.00;96431.31;4840805;28;20496;-71
2022/11/06 00:48:51;;;;;;;19.15;12.88;;;6.60;84.20;;;4.69;100.00;96439.28;4837920;28;20372;-71
2022/11/06 00:51:21;;;;;;;20.30;14.15;;;6.60;84.10;;;4.69;100.00;96439.28;4854371;28;20322;-70
2022/11/06 00:53:47;;;;;;;17.95;12.35;;;6.50;84.10;;;4.67;100.00;96442.03;4892029;28;20325;-72
2022/11/06 00:56:18;;;;;;;17.05;12.30;;;6.50;84.10;;;4.65;100.00;96446.56;4844519;28;20520;-71
2022/11/06 00:58:45;;;;;;;21.35;12.55;;;6.50;83.90;;;4.64;100.00;96441.50;4874325;28;20368;-71
2022/11/06 01:01:19;;;;;;;16.80;11.93;;;6.50;83.80;;;4.60;100.00;96433.16;4870944;28;20407;-71
2022/11/06 01:03:47;;;;;;;18.25;11.85;;;6.50;83.80;;;4.56;100.00;96434.41;4873298;28;20698;-71
2022/11/06 01:06:16;;;;;;;17.55;12.32;;;6.40;84.00;;;4.54;100.00;96434.56;4872798;28;20361;-71
2022/11/06 01:08:42;;;;;;;19.85;12.88;;;6.40;83.90;;;4.52;100.00;96431.25;4872168;28;20497;-71
2022/11/06 01:11:33;;;;;;;18.92;12.98;;;6.40;83.80;;;4.49;100.00;96428.13;4887927;28;20716;-71
2022/11/06 01:14:01;;;;;;;19.02;12.77;;;6.30;84.00;;;4.47;100.00;96425.66;4875957;28;20447;-71
2022/11/06 01:16:27;;;;;;;20.65;13.10;;;6.30;84.00;;;4.48;100.00;96421.25;4873524;28;20444;-71
2022/11/06 01:18:54;;;;;;;20.52;13.50;;;6.30;84.00;;;4.46;100.00;96424.00;4890624;28;20323;-71
2022/11/06 01:21:32;;;;;;;20.75;13.60;;;6.30;83.90;;;4.41;100.00;96425.41;4887805;28;20931;-71
2022/11/06 01:24:01;;;;;;;21.63;13.38;;;6.20;84.60;;;4.40;100.00;96423.78;4872127;28;20601;-72
2022/11/06 01:26:27;;;;;;;20.38;12.90;;;6.20;84.70;;;4.38;100.00;96415.28;4872246;28;20598;-71
2022/11/06 01:28:54;;;;;;;17.27;11.63;;;6.20;84.60;;;4.37;100.00;96417.06;4863569;28;20843;-71
2022/11/06 01:31:22;;;;;;;17.75;11.70;;;6.20;84.40;;;4.33;100.00;96407.09;4852310;28;20716;-71
2022/11/06 01:33:48;;;;;;;20.23;11.55;;;6.10;84.10;;;4.32;100.00;96405.44;4838370;28;20316;-72
2022/11/06 01:36:18;;;;;;;16.80;11.27;;;6.10;84.20;;;4.27;100.00;96408.44;4883242;28;20560;-70
2022/11/06 01:38:47;;;;;;;16.60;11.30;;;6.10;84.20;;;4.25;100.00;96402.56;4893524;28;20045;-70
2022/11/06 01:41:21;;;;;;;13.55;9.95;;;6.10;84.10;;;4.21;100.00;96404.66;4893776;28;20276;-69
2022/11/06 01:43:54;;;;;;;61.55;9.60;;;6.10;84.50;;;4.14;100.00;96402.75;4913662;28;20041;-71
2022/11/06 01:46:23;;;;;;;13.80;8.95;;;5.90;85.10;;;4.12;100.00;96405.50;4911252;28;20150;-70
2022/11/06 01:48:57;;;;;;;23.17;9.23;;;6.00;85.40;;;4.14;100.00;96408.78;4913873;28;20030;-71
2022/11/06 01:51:24;;;;;;;164.88;14.95;;;6.00;85.40;;;4.17;100.00;96411.09;4914397;28;20147;-71
2022/11/06 01:53:50;;;;;;;19.60;11.20;;;6.00;85.70;;;4.17;100.00;96408.50;4898089;28;20108;-70
2022/11/06 01:56:16;;;;;;;14.50;10.77;;;6.00;85.80;;;4.20;100.00;96403.00;4899132;28;20034;-70
2022/11/06 01:58:44;;;;;;;13.25;10.05;;;6.10;85.70;;;4.23;100.00;96401.91;4897429;28;20038;-71
2022/11/06 02:01:10;;;;;;;20.02;11.30;;;6.10;85.60;;;4.23;100.00;96400.13;4897921;28;20088;-71
2022/11/06 02:03:36;;;;;;;19.10;11.98;;;6.20;85.40;;;4.23;100.00;96402.72;4897969;28;20316;-70
2022/11/06 02:06:03;;;;;;;18.95;11.68;;;6.10;85.30;;;4.22;100.00;96401.06;4908494;28;20325;-70
2022/11/06 02:08:29;;;;;;;15.00;10.45;;;6.10;85.00;;;4.23;100.00;96402.72;4862438;28;20355;-71
2022/11/06 02:10:55;;;;;;;12.57;9.60;;;6.10;84.60;;;4.21;100.00;96399.44;4905992;28;20683;-71
2022/11/06 02:14:02;;;;;;;14.93;9.57;;;6.10;84.40;;;4.18;100.00;96399.72;4894334;28;20344;-71
2022/11/06 02:16:53;;;;;;;19.08;11.77;;;6.10;84.20;;;4.15;100.00;96397.41;4909442;28;20423;-71
2022/11/06 02:19:48;;;;;;;43.85;13.02;;;6.10;84.10;;;4.11;100.00;96393.44;4908923;28;20445;-71
2022/11/06 02:23:10;;;;;;;20.50;12.77;;;6.00;84.50;;;4.09;100.00;96400.59;4907954;28;20579;-71
2022/11/06 02:26:01;;;;;;;18.65;12.25;;;6.00;84.60;;;4.05;100.00;96394.00;4920920;28;20335;-71
2022/11/06 02:28:34;;;;;;;17.58;12.13;;;5.90;84.60;;;4.03;100.00;96389.91;4922413;28;20349;-71
2022/11/06 02:31:04;;;;;;;20.63;13.10;;;5.90;84.20;;;4.00;100.00;96380.59;4907108;28;20457;-71
2022/11/06 02:33:34;;;;;;;18.77;12.17;;;5.80;84.00;;;3.97;100.00;96386.09;4879872;28;20422;-71
2022/11/06 02:36:07;;;;;;;24.13;14.25;;;5.80;83.80;;;3.92;100.00;96380.50;4891149;28;20629;-71
2022/11/06 02:38:40;;;;;;;22.80;12.55;;;5.80;83.60;;;3.89;100.00;96381.59;4905599;28;20458;-72
2022/11/06 02:41:10;;;;;;;23.85;13.77;;;5.80;83.40;;;3.84;100.00;96388.16;4904651;28;20334;-71
2022/11/06 02:43:44;;;;;;;24.97;15.27;;;5.70;83.30;;;3.79;100.00;96382.56;4923025;28;20763;-72
2022/11/06 02:46:27;;;;;;;23.77;13.43;;;5.60;83.30;;;3.75;100.00;96382.03;4906412;28;20405;-73
2022/11/06 02:49:05;;;;;;;21.15;12.55;;;5.60;83.50;;;3.69;100.00;96383.41;4905878;28;20440;-71
2022/11/06 02:51:35;;;;;;;26.48;9.70;;;5.60;83.70;;;3.65;100.00;96376.84;4891588;28;20307;-71
2022/11/06 02:54:02;;;;;;;36.20;8.05;;;5.50;84.20;;;3.60;100.00;96368.63;4925704;28;20343;-71
2022/11/06 02:56:30;;;;;;;9.77;7.43;;;5.40;84.10;;;3.58;100.00;96372.31;4922195;28;20370;-72
2022/11/06 02:59:03;;;;;;;11.23;6.88;;;5.30;84.30;;;3.55;100.00;96381.22;4906025;28;20444;-71
2022/11/06 03:01:55;;;;;;;10.82;7.70;;;5.30;84.00;;;3.53;100.00;96383.16;4888541;28;20265;-70
2022/11/06 03:04:28;;;;;;;25.02;7.85;;;5.30;84.20;;;3.52;100.00;96376.31;4908792;28;20398;-73
2022/11/06 03:07:04;;;;;;;10.85;7.80;;;5.30;84.20;;;3.53;100.00;96377.13;4925651;28;20490;-71
2022/11/06 03:09:31;;;;;;;11.35;7.80;;;5.30;84.30;;;3.51;100.00;96372.06;4904982;28;20346;-71
2022/11/06 03:12:03;;;;;;;9.80;7.55;;;5.30;84.20;;;3.49;100.00;96376.59;4910015;28;20545;-71
2022/11/06 03:14:38;;;;;;;9.43;7.10;;;5.30;84.00;;;3.45;100.00;96374.41;4858256;28;20478;-71
2022/11/06 03:17:22;;;;;;;7.13;5.75;;;5.30;83.50;;;3.43;100.00;96373.72;4858359;28;20717;-70
2022/11/06 03:20:05;;;;;;;6.70;5.40;;;5.30;83.10;;;3.40;100.00;96376.59;4872888;28;20511;-71
2022/11/06 03:23:02;;;;;;;8.52;5.13;;;5.20;82.80;;;3.37;100.00;96375.06;4906239;28;20372;-71
2022/11/06 03:25:45;;;;;;;7.25;5.80;;;5.10;82.70;;;3.33;100.00;96373.72;4904600;28;20460;-71
2022/11/06 03:28:23;;;;;;;7.45;5.05;;;5.10;82.50;;;3.28;100.00;96373.31;4888801;28;20468;-71
2022/11/06 03:30:54;;;;;;;7.32;5.43;;;5.10;82.30;;;3.23;100.00;96376.31;4910438;28;20553;-72
2022/11/06 03:33:32;;;;;;;7.90;5.72;;;5.00;82.20;;;3.19;100.00;96382.75;4905139;28;20340;-71
2022/11/06 03:36:07;;;;;;;7.00;5.38;;;5.00;82.50;;;3.14;100.00;96386.69;4903162;28;20390;-71
2022/11/06 03:38:38;;;;;;;7.25;5.75;;;4.90;82.50;;;3.08;100.00;96381.09;4867260;28;20363;-71
2022/11/06 03:42:00;;;;;;;7.70;6.13;;;4.90;82.60;;;3.07;100.00;96376.84;4866810;28;20498;-71
2022/11/06 03:44:27;;;;;;;11.55;6.50;;;4.90;82.90;;;3.05;100.00;96383.97;4855954;28;20583;-71
2022/11/06 03:47:36;;;;;;;11.32;6.40;;;4.80;83.30;;;3.03;100.00;96385.88;4874180;28;20509;-71
2022/11/06 03:50:29;;;;;;;8.15;6.47;;;4.80;83.10;;;3.01;100.00;96376.59;4796441;29;20507;-71
2022/11/06 03:53:00;;;;;;;8.95;6.95;;;4.80;83.20;;;2.97;100.00;96373.44;4811338;29;20521;-71
2022/11/06 03:55:29;;;;;;;;;;;4.80;83.40;;;2.95;100.00;96383.16;4842892;28;20496;-71
2022/11/06 03:57:57;;;;;;;10.00;7.25;;;4.80;83.60;;;2.93;100.00;96376.41;4873591;28;20201;-71
2022/11/06 04:00:23;;;;;;;9.75;7.03;;;4.80;83.80;;;2.92;100.00;96373.00;4854294;28;20349;-72
2022/11/06 04:03:03;;;;;;;10.13;7.85;;;4.80;83.80;;;2.92;100.00;96372.19;4838830;28;20298;-71
2022/11/06 04:05:39;;;;;;;9.85;7.65;;;4.80;83.70;;;2.90;100.00;96372.31;4840628;28;20432;-71
2022/11/06 04:13:57;;;;;;;9.90;7.40;;;4.80;83.30;;;2.88;100.00;96371.63;4896647;28;20438;-71
2022/11/06 04:16:25;;;;;;;12.63;8.02;;;4.70;83.10;;;2.87;100.00;96359.59;4844089;28;20322;-72
2022/11/06 04:18:51;;;;;;;14.73;8.27;;;4.70;83.10;;;2.87;100.00;96359.59;4853234;28;20481;-71
2022/11/06 04:21:54;;;;;;;37.72;10.70;;;4.70;83.20;;;2.86;100.00;96368.34;4852804;28;20472;-71
2022/11/06 04:28:05;;;;;;;35.25;16.92;;;4.60;83.60;;;2.78;100.00;96372.59;4889189;28;20482;-71
2022/11/06 04:31:04;;;;;;;99.35;46.05;;;4.60;84.40;;;2.76;100.00;96373.53;4871040;28;20455;-71
2022/11/06 04:33:49;;;;;;;40.15;14.18;;;4.60;85.30;;;2.75;100.00;96364.09;4863848;28;20348;-70
2022/11/06 04:36:54;;;;;;;26.92;10.32;;;4.70;84.80;;;2.75;100.00;96365.88;4941843;28;20142;-71
2022/11/06 04:39:42;;;;;;;19.90;9.60;;;4.60;84.60;;;2.74;100.00;96359.06;4920481;28;20346;-70
2022/11/06 04:42:19;;;;;;;13.23;8.70;;;4.60;84.50;;;2.71;100.00;96348.91;4880787;28;20680;-71
2022/11/06 04:44:55;;;;;;;14.35;7.75;;;4.60;84.40;;;2.70;100.00;96342.06;4891863;28;20318;-70
2022/11/06 04:47:22;;;;;;;10.35;7.82;;;4.60;84.30;;;2.69;100.00;96341.25;4859521;28;20363;-71
2022/11/06 04:49:50;;;;;;;9.65;6.90;;;4.60;84.40;;;2.70;100.00;96344.66;4892245;28;20049;-70
2022/11/06 04:52:22;;;;;;;11.25;7.10;;;4.60;84.40;;;2.70;100.00;96342.06;4892631;28;20592;-70
2022/11/06 04:54:49;;;;;;;12.27;7.07;;;4.60;84.40;;;2.68;100.00;96339.59;4893236;28;20371;-70
2022/11/06 04:57:16;;;;;;;11.50;6.93;;;4.60;84.10;;;2.69;100.00;96340.44;4907568;28;20282;-71
2022/11/06 04:59:42;;;;;;;9.88;7.00;;;4.60;84.20;;;2.69;100.00;96332.63;4891344;28;20547;-71
2022/11/06 05:02:09;;;;;;;12.98;7.45;;;4.60;84.20;;;2.71;100.00;96344.53;4870820;28;20406;-71
2022/11/06 05:04:35;;;;;;;17.80;7.32;;;4.60;84.30;;;2.73;100.00;96339.22;4855920;28;20460;-70
2022/11/06 05:07:01;;;;;;;20.42;7.90;;;4.60;84.00;;;2.73;100.00;96342.66;4858171;28;20537;-70
2022/11/06 05:09:27;;;;;;;43.97;8.20;;;4.60;84.30;;;2.71;100.00;96333.31;4852446;28;20316;-70
2022/11/06 05:11:53;;;;;;;43.90;7.80;;;4.60;84.50;;;2.67;100.00;96326.75;4868453;28;20045;-71
2022/11/06 05:14:20;;;;;;;23.02;7.25;;;4.60;84.60;;;2.65;100.00;96324.28;4889413;28;20163;-71
2022/11/06 05:16:46;;;;;;;27.55;7.57;;;4.60;84.40;;;2.64;100.00;96334.81;4953736;28;20500;-71
2022/11/06 05:19:13;;;;;;;11.57;7.35;;;4.60;84.40;;;2.62;100.00;96328.94;4946959;28;20491;-70
2022/11/06 05:24:24;;;;;;;10.23;7.03;;;4.60;84.20;;;2.64;100.00;96321.84;4954942;28;20088;-71
2022/11/06 05:26:51;;;;;;;13.27;7.22;;;4.60;84.10;;;2.65;100.00;96316.50;4939698;28;20677;-71
2022/11/06 05:29:18;;;;;;;39.08;7.53;;;4.60;84.20;;;2.67;100.00;96318.97;4953405;28;20383;-71
2022/11/06 05:31:44;;;;;;;42.17;8.35;;;4.60;84.50;;;2.66;100.00;96309.53;4954384;28;20357;-71
2022/11/06 05:34:11;;;;;;;14.60;8.55;;;4.60;84.90;;;2.68;100.00;96307.63;4914606;28;20456;-71
2022/11/06 05:36:37;;;;;;;52.47;9.82;;;4.60;85.20;;;2.66;100.00;96309.53;4903575;28;20425;-70
2022/11/06 05:39:03;;;;;;;61.70;10.20;;;4.60;85.20;;;2.63;100.00;96310.63;4917998;28;20371;-71
2022/11/06 05:41:30;;;;;;;32.42;8.68;;;4.50;85.20;;;2.62;100.00;96303.78;4906652;28;20317;-70
2022/11/06 05:43:56;;;;;;;26.73;9.10;;;4.60;85.20;;;2.61;100.00;96307.34;4941331;28;20056;-70
2022/11/06 05:46:22;;;;;;;91.00;9.73;;;4.60;85.30;;;2.65;100.00;96313.09;4956775;28;20548;-71
2022/11/06 05:48:48;;;;;;;15.30;8.88;;;4.60;85.00;;;2.66;100.00;96314.72;5007097;28;20099;-72
2022/11/06 05:51:14;;;;;;;23.00;9.55;;;4.60;85.20;;;2.69;100.00;96320.47;4953943;28;20397;-73
2022/11/06 05:53:39;;;;;;;35.88;9.73;;;4.60;85.10;;;2.69;100.00;96320.47;4955313;28;20029;-71
2022/11/06 05:56:06;;;;;;;21.00;9.95;;;4.70;84.90;;;2.72;100.00;96324.59;4955495;28;20485;-72
2022/11/06 05:58:32;;;;;;;18.05;9.30;;;4.70;85.10;;;2.75;100.00;96319.13;4971044;28;20042;-73
2022/11/06 06:00:58;;;;;;;24.27;9.63;;;4.70;84.90;;;2.78;100.00;96312.84;4971937;28;20084;-72
2022/11/06 06:03:24;;;;;;;19.40;10.48;;;4.80;84.80;;;2.78;100.00;96313.66;4954184;28;20065;-72
2022/11/06 06:05:50;;;;;;;26.02;9.32;;;4.70;84.80;;;2.81;100.00;96302.19;4971355;28;20029;-72
2022/11/06 06:08:16;;;;;;;10.77;7.07;;;4.80;85.00;;;2.80;100.00;96290.97;4954864;28;20400;-72
2022/11/06 06:10:45;;;;;;;9.45;6.63;;;4.80;84.60;;;2.80;100.00;96300.53;4955478;28;20481;-70
2022/11/06 06:13:11;;;;;;;48.95;6.30;;;4.80;84.80;;;2.81;100.00;96291.78;4970744;28;20034;-71
2022/11/06 06:15:38;;;;;;;8.25;6.15;;;4.70;84.50;;;2.83;100.00;96285.50;4955680;28;20184;-69
2022/11/06 06:18:04;;;;;;;9.10;5.43;;;4.80;84.70;;;2.83;100.00;96285.50;4883286;28;20388;-69
2022/11/06 06:20:31;;;;;;;7.15;5.63;;;4.70;84.70;;;2.83;100.00;96280.28;4839710;28;20555;-73
2022/11/06 06:22:57;;;;;;;7.45;5.72;;;4.80;84.80;;;2.88;100.00;96278.09;4844514;28;20400;-71
2022/11/06 06:25:24;;;;;;;7.30;5.97;;;4.90;84.90;;;2.93;100.00;96275.91;4852947;28;20313;-70
2022/11/06 06:27:50;;;;;;;7.38;5.85;;;5.00;85.00;;;2.96;100.00;96273.06;4853741;28;20316;-70
2022/11/06 06:30:16;;;;;;;7.85;6.22;;;5.00;84.80;;;3.01;100.00;96273.47;4840064;28;20436;-70
2022/11/06 06:32:42;;;;;;;7.18;5.80;;;5.10;84.80;;;3.07;100.00;96275.50;4856176;28;20847;-71
2022/11/06 06:35:08;;;;;;;8.77;5.93;;;5.10;84.80;;;3.13;100.00;96276.72;4858027;28;20373;-70
2022/11/06 06:37:34;;;;;;;8.45;6.30;;;5.20;84.80;;;3.18;100.00;96269.34;4857437;28;20480;-68
2022/11/06 06:40:00;;;;;;;11.82;8.07;;;5.30;84.80;;;3.24;100.00;96273.97;4886739;28;20347;-68
2022/11/06 06:42:30;;;;;;;21.85;14.32;;;5.30;84.80;;;3.30;100.00;96272.59;4873671;28;20634;-69
2022/11/06 06:44:56;;;;;;;15.63;11.88;;;5.40;84.80;;;3.37;100.00;96273.66;4873433;28;20399;-69
2022/11/06 06:47:22;;;;;;;20.90;14.60;;;5.50;84.80;;;3.45;100.00;96281.63;4872363;28;20502;-68
2022/11/06 06:49:48;;;;;;;15.48;10.40;;;5.60;84.80;;;3.50;100.00;96275.97;4874550;28;20317;-68
2022/11/06 06:52:14;;;;;;;13.27;9.35;;;5.60;84.60;;;3.54;100.00;96279.94;4873792;28;20501;-68
2022/11/06 06:54:41;;;;;;;10.00;7.03;;;5.70;84.80;;;3.58;100.00;96265.69;4893933;28;20361;-68
2022/11/06 06:57:08;;;;;;;9.75;7.15;;;5.70;84.50;;;3.63;100.00;96266.91;4937470;28;20361;-68
2022/11/06 06:59:34;;;;;;;10.50;7.18;;;5.80;84.70;;;3.69;100.00;96268.94;4843748;28;20946;-68
2022/11/06 07:02:00;;;;;;;14.38;9.38;;;5.90;84.60;;;3.75;100.00;96267.56;4847279;28;20479;-68
2022/11/06 07:04:26;;;;;;;15.95;9.50;;;5.90;85.00;;;3.82;100.00;96265.19;4848311;28;20421;-68
2022/11/06 07:06:53;;;;;;;20.23;11.13;;;5.90;85.20;;;3.88;100.00;96269.84;4875007;28;20443;-73
2022/11/06 07:09:21;;;;;;;20.10;11.70;;;6.00;85.40;;;3.91;100.00;96272.97;4876444;28;20557;-73
2022/11/06 07:11:47;;;;;;;20.30;12.30;;;6.10;85.70;;;3.99;100.00;96280.06;4870726;28;20782;-72
2022/11/06 07:14:13;;;;;;;19.02;11.82;;;6.10;85.70;;;4.05;100.00;96284.69;4882356;28;20355;-66
2022/11/06 07:16:39;;;;;;;20.55;12.38;;;6.30;85.70;;;4.13;100.00;96292.59;4861817;28;20487;-66
2022/11/06 07:19:05;;;;;;;24.33;15.75;;;6.40;85.80;;;4.21;100.00;96294.47;4883920;28;20449;-67
2022/11/06 07:21:31;;;;;;;28.40;16.85;;;6.40;85.50;;;4.28;100.00;96296.34;4869218;28;20700;-66
2022/11/06 07:23:57;;;;;;;25.58;15.73;;;6.50;85.60;;;4.35;100.00;96291.41;4860271;28;20287;-66
2022/11/06 07:26:23;;;;;;;31.33;15.57;;;6.60;85.60;;;4.43;100.00;96298.47;4857489;28;20360;-66
2022/11/06 07:28:49;;;;;;;36.70;15.10;;;6.60;85.80;;;4.46;100.00;96298.19;4857558;28;20276;-68
2022/11/06 07:31:16;;;;;;;37.33;22.48;;;6.60;86.10;;;4.50;100.00;96296.91;4857810;28;20380;-67
2022/11/06 07:33:42;;;;;;;37.85;23.05;;;6.70;86.40;;;4.59;100.00;96303.88;4857874;28;20425;-65
2022/11/06 07:36:10;;;;;;;30.55;17.65;;;6.80;86.50;;;4.64;100.00;96309.44;4860732;28;20348;-66
2022/11/06 07:38:37;;;;;;;30.38;17.48;;;6.70;86.00;;;4.70;100.00;96311.47;4871958;28;20349;-66
2022/11/06 07:41:04;;;;;;;26.75;13.27;;;6.80;86.00;;;4.71;100.00;96313.09;4890560;28;20658;-67
2022/11/06 07:43:31;;;;;;;18.60;12.52;;;6.70;85.70;;;4.71;100.00;96307.88;4870447;28;20425;-65
2022/11/06 07:46:02;;;;;;;15.95;10.18;;;6.70;85.80;;;4.72;100.00;96314.72;4891846;28;20398;-66
2022/11/06 07:48:28;;;;;;;28.58;9.50;;;6.70;84.90;;;4.72;100.00;96316.53;4898464;28;20507;-75
2022/11/06 07:50:55;;;;;;;13.43;9.32;;;6.60;84.80;;;4.71;100.00;96313.09;4917691;28;20351;-75
2022/11/06 07:53:21;;;;;;;20.58;10.75;;;6.70;85.10;;;4.72;100.00;96313.91;4913750;28;20592;-69
2022/11/06 07:55:48;;;;;;;26.13;10.65;;;6.70;84.80;;;4.73;100.00;96315.56;4853903;28;20318;-73
2022/11/06 07:58:15;;;;;;;27.45;11.45;;;6.60;85.60;;;4.70;100.00;96321.88;4854973;28;20473;-72
2022/11/06 08:00:46;;;;;;;23.77;10.95;;;6.60;85.00;;;4.69;100.00;96299.41;4874177;28;20622;-73
2022/11/06 08:03:12;;;;;;;;;;;6.60;85.30;;;4.72;100.00;96303.50;4871509;28;20526;-67
2022/11/06 08:05:38;;;;;;;31.35;11.07;;;6.80;85.00;;;4.73;100.00;96289.50;4872184;28;20684;-69
2022/11/06 08:08:04;;;;;;;17.73;10.95;;;6.80;84.90;;;4.78;100.00;96282.91;4857524;28;20558;-68
2022/11/06 08:10:30;;;;;;;17.77;11.77;;;6.90;84.80;;;4.80;100.00;96280.97;4872628;28;20353;-70
2022/11/06 08:12:59;;;;;;;21.98;12.40;;;6.90;84.60;;;4.84;100.00;96279.69;4837937;28;20340;-70
2022/11/06 08:15:25;;;;;;;21.45;12.55;;;7.00;84.40;;;4.89;100.00;96269.63;4836581;28;20334;-70
2022/11/06 08:17:51;;;;;;;22.23;12.90;;;7.10;84.10;;;4.95;100.00;96263.00;4837101;28;20357;-70
2022/11/06 08:20:20;;;;;;;30.52;13.32;;;7.10;84.10;;;4.98;100.00;96261.88;4867957;28;20552;-72
2022/11/06 08:22:46;;;;;;;31.58;13.38;;;7.10;83.80;;;5.00;100.00;96259.97;4872274;28;20345;-71
2022/11/06 08:25:12;;;;;;;27.42;14.63;;;7.10;83.80;;;5.05;100.00;96249.88;4886086;28;20304;-70
2022/11/06 08:27:38;;;;;;;26.33;13.98;;;7.20;83.80;;;5.09;100.00;96232.97;4872392;28;20530;-70
2022/11/06 08:30:05;;;;;;;25.70;14.80;;;7.30;83.80;;;5.15;100.00;96238.38;4869047;28;20451;-75
2022/11/06 08:32:32;;;;;;;25.00;14.50;;;7.40;83.50;;;5.25;100.00;96225.28;4897007;28;20395;-68
2022/11/06 08:34:59;;;;;;;23.15;15.02;;;7.60;83.60;;;5.34;100.00;96241.78;4920166;28;20034;-72
2022/11/06 08:37:25;;;;;;;24.70;15.43;;;7.60;83.30;;;5.39;100.00;96256.00;4903441;28;20418;-69
2022/11/06 08:39:52;;;;;;;38.55;24.20;;;7.60;82.70;;;5.43;100.00;96254.75;4915322;28;20403;-66
2022/11/06 08:42:19;;;;;;;36.78;23.48;;;7.70;83.20;;;5.52;100.00;96250.38;4905972;28;20709;-69
2022/11/06 08:44:45;;;;;;;29.27;17.85;;;7.80;82.90;;;5.60;100.00;96241.78;4877864;28;20287;-66
2022/11/06 08:47:12;;;;;;;27.20;15.65;;;7.90;82.70;;;5.66;100.00;96242.00;4851989;28;20367;-66
2022/11/06 08:49:38;;;;;;;25.10;14.90;;;8.00;82.30;;;5.74;100.00;96243.81;4864146;28;20470;-68
2022/11/06 08:52:04;;;;;;;23.38;15.52;;;8.10;82.40;;;5.81;100.00;96239.59;4905104;28;20470;-66
2022/11/06 08:54:31;;;;;;;23.65;16.00;;;8.10;82.20;;;5.89;100.00;96252.72;4907620;28;20520;-66
2022/11/06 08:56:57;;;;;;;23.23;15.90;;;8.20;81.80;;;5.96;100.00;96237.28;4872978;28;20499;-72
2022/11/06 08:59:23;;;;;;;24.05;15.52;;;8.30;82.00;;;6.03;100.00;96233.03;4885379;28;20359;-72
2022/11/06 09:01:49;;;;;;;23.30;16.00;;;8.40;81.70;;;6.10;100.00;96234.88;4886768;28;20287;-72
2022/11/06 09:04:15;;;;;;;22.10;16.13;;;8.40;81.80;;;6.18;100.00;96222.81;4873363;28;20448;-67
2022/11/06 09:06:41;;;;;;;22.73;15.35;;;8.40;81.50;;;6.23;100.00;96212.72;4887892;28;20785;-66
2022/11/06 09:09:07;;;;;;;23.08;16.45;;;8.50;81.20;;;6.30;100.00;96206.69;4893060;28;20437;-67
2022/11/06 09:11:33;;;;;;;21.38;15.95;;;8.60;81.40;;;6.39;100.00;96200.53;4849795;28;20616;-66
2022/11/06 09:13:59;;;;;;;22.42;15.57;;;8.70;81.20;;;6.46;100.00;96187.63;4850386;28;20810;-67
2022/11/06 09:16:25;;;;;;;20.13;14.90;;;8.80;81.00;;;6.58;100.00;96180.31;4855154;28;20704;-66
2022/11/06 09:18:55;;;;;;;21.35;15.45;;;9.00;80.90;;;6.65;100.00;96179.47;4855367;28;20331;-69
2022/11/06 09:21:22;;;;;;;20.45;16.25;;;9.00;80.20;;;6.74;100.00;96170.66;4856061;28;20438;-67
2022/11/06 09:23:48;;;;;;;22.67;15.98;;;9.10;79.90;;;6.87;100.00;96166.75;4858056;28;20266;-69
2022/11/06 09:26:15;;;;;;;20.30;16.20;;;9.30;79.60;;;6.98;100.00;96150.69;4873219;28;20709;-68
2022/11/06 09:28:41;;;;;;;22.42;16.20;;;9.50;79.20;;;7.13;100.00;96146.44;4871046;28;20349;-67
2022/11/06 09:31:08;;;;;;;21.75;16.13;;;9.80;79.10;;;7.27;100.00;96150.19;4865989;28;20603;-67
2022/11/06 09:33:35;;;;;;;20.55;16.98;;;9.90;78.60;;;7.39;100.00;96159.31;4890933;28;20446;-66
2022/11/06 09:36:06;;;;;;;20.98;16.08;;;9.90;78.10;;;7.48;100.00;96147.03;4906791;28;20680;-65
2022/11/06 09:38:33;;;;;;;;;;;10.00;77.90;;;7.58;100.00;96142.41;4894138;28;20315;-68
2022/11/06 09:41:02;;;;;;;29.17;22.88;;;10.10;78.00;;;7.67;100.00;96136.13;4886459;28;20409;-66
2022/11/06 09:44:09;;;;;;;23.73;18.80;;;10.10;77.70;;;7.76;100.00;96129.09;4870114;28;20312;-65
2022/11/06 09:46:42;;;;;;;20.70;16.73;;;10.10;77.80;;;7.78;100.00;96127.94;4867366;28;20426;-65
2022/11/06 09:49:25;;;;;;;19.83;15.95;;;10.20;77.50;;;7.85;100.00;96121.00;4874409;28;20759;-65
2022/11/06 09:52:18;;;;;;;19.48;15.45;;;10.10;77.10;;;7.94;100.00;96111.31;4944521;28;20361;-64
2022/11/06 09:55:24;;;;;;;20.80;16.95;;;10.40;77.00;;;8.12;100.00;96106.59;4925222;28;20489;-69
2022/11/06 09:57:59;;;;;;;18.23;15.10;;;10.70;75.80;;;8.29;100.00;96104.72;4880935;28;20393;-68
2022/11/06 10:00:25;;;;;;;17.45;14.70;;;11.50;74.20;;;8.47;100.00;96096.59;4896941;28;20341;-67
2022/11/06 10:03:04;;;;;;;16.40;14.35;;;11.60;73.50;;;8.66;100.00;96095.28;4856154;28;20781;-67
2022/11/06 10:05:34;;;;;;;19.17;15.55;;;11.50;73.60;;;8.75;100.00;96099.47;4867310;28;20353;-68
2022/11/06 10:08:16;;;;;;;16.77;14.25;;;11.50;73.70;;;8.84;100.00;96088.75;4869182;28;20495;-67
2022/11/06 10:11:17;;;;;;;17.42;14.30;;;11.50;73.30;;;8.93;100.00;96081.59;4900518;28;20652;-66
2022/11/06 10:14:04;;;;;;;16.67;14.13;;;11.50;72.70;;;9.28;100.00;96077.47;4886790;28;20356;-66
2022/11/06 10:16:41;;;;;;;15.32;13.20;;;14.30;65.50;;;9.72;100.00;96066.09;4904769;28;20367;-66
2022/11/06 10:19:31;;;;;;;14.60;13.02;;;14.90;63.80;;;10.35;100.00;96057.50;4885148;28;20397;-66
2022/11/06 10:22:44;;;;;;;15.88;13.60;;;16.50;57.70;;;10.77;100.00;96061.09;4865625;28;20373;-66
2022/11/06 10:25:21;;;;;;;14.88;12.50;;;15.70;58.70;;;11.01;100.00;96055.38;4866164;28;20398;-67
2022/11/06 10:28:01;;;;;;;13.85;11.20;;;15.10;60.80;;;11.14;100.00;96040.69;4873539;28;20363;-66
2022/11/06 10:31:27;;;;;;;13.45;10.82;;;15.00;60.50;;;11.44;100.00;96042.06;4880660;28;20573;-69
2022/11/06 10:34:03;;;;;;;11.35;10.15;;;16.40;57.60;;;11.79;100.00;96031.50;4893732;28;20384;-68
2022/11/06 10:37:02;;;;;;;11.95;10.50;;;16.60;55.60;;;12.02;100.00;96033.81;4891401;28;20352;-67
2022/11/06 10:39:30;;;;;;;14.23;12.73;;;16.40;57.10;;;12.12;100.00;96024.47;4814685;28;20365;-67
2022/11/06 10:42:05;;;;;;;13.82;11.77;;;16.10;58.30;;;12.25;100.00;96023.72;4874712;28;20447;-73
2022/11/06 10:44:37;;;;;;;14.15;12.52;;;16.20;57.40;;;12.26;99.90;96015.59;4883515;28;20427;-74
2022/11/06 10:47:15;;;;;;;13.95;12.25;;;15.60;58.60;;;12.13;96.14;96005.00;4858438;28;20378;-67